createdAt,value
2022-09-23T00:00:15.819Z,4.80
2022-09-23T00:02:50.070Z,5.72
2022-09-23T00:05:24.019Z,5.25
2022-09-23T00:10:32.329Z,5.57
2022-09-23T00:13:08.072Z,3.92
2022-09-23T00:15:41.915Z,5.22
2022-09-23T00:20:49.595Z,5.30
2022-09-23T00:23:23.459Z,4.97
2022-09-23T00:28:33.409Z,5.43
2022-09-23T00:31:09.488Z,4.55
2022-09-23T00:33:43.525Z,3.95
2022-09-23T00:36:17.748Z,4.65
2022-09-23T00:38:51.739Z,4.75
2022-09-23T00:41:26.402Z,5.47
2022-09-23T00:44:03.640Z,3.90
2022-09-23T00:46:41.328Z,4.75
2022-09-23T00:49:30.187Z,4.60
2022-09-23T00:52:12.569Z,4.65
2022-09-23T00:54:47.761Z,4.70
2022-09-23T00:57:22.118Z,4.70
2022-09-23T00:59:58.000Z,4.25
2022-09-23T01:02:33.114Z,5.13
2022-09-23T01:05:09.374Z,4.35
2022-09-23T01:07:43.199Z,4.28
2022-09-23T01:10:19.530Z,4.47
2022-09-23T01:13:15.543Z,4.32
2022-09-23T01:15:54.720Z,3.80
2022-09-23T01:18:36.451Z,4.70
2022-09-23T01:21:23.065Z,4.18
2022-09-23T01:24:34.005Z,4.43
2022-09-23T01:27:15.005Z,4.70
2022-09-23T01:30:13.837Z,4.32
2022-09-23T01:33:05.899Z,4.32
2022-09-23T01:35:55.634Z,4.07
2022-09-23T01:38:37.364Z,3.80
2022-09-23T01:41:27.749Z,3.65
2022-09-23T01:44:07.107Z,4.60
2022-09-23T01:46:49.519Z,3.90
2022-09-23T01:49:30.552Z,4.35
2022-09-23T01:52:11.019Z,4.20
2022-09-23T01:54:50.777Z,3.72
2022-09-23T01:57:30.070Z,3.85
2022-09-23T02:00:09.334Z,3.80
2022-09-23T02:02:50.447Z,3.72
2022-09-23T02:05:30.567Z,3.90
2022-09-23T02:08:10.447Z,4.35
2022-09-23T02:10:48.997Z,4.45
2022-09-23T02:13:30.129Z,4.03
2022-09-23T02:16:10.554Z,4.18
2022-09-23T02:18:48.845Z,3.60
2022-09-23T02:21:27.941Z,4.03
2022-09-23T02:24:09.250Z,3.92
2022-09-23T02:26:51.397Z,3.70
2022-09-23T02:29:32.576Z,3.70
2022-09-23T02:32:15.105Z,3.38
2022-09-23T02:34:57.118Z,4.28
2022-09-23T02:37:41.136Z,3.80
2022-09-23T02:40:23.728Z,3.83
2022-09-23T02:43:05.342Z,3.90
2022-09-23T02:45:39.346Z,3.90
2022-09-23T02:48:19.349Z,3.10
2022-09-23T02:50:54.560Z,4.00
2022-09-23T02:53:32.254Z,3.20
2022-09-23T02:56:16.248Z,3.25
2022-09-23T02:58:51.974Z,4.10
2022-09-23T03:01:39.371Z,3.90
2022-09-23T03:04:19.715Z,3.60
2022-09-23T03:07:02.344Z,3.65
2022-09-23T03:09:43.631Z,3.45
2022-09-23T03:12:25.324Z,3.85
2022-09-23T03:15:07.312Z,3.20
2022-09-23T03:17:48.821Z,3.25
2022-09-23T03:20:31.109Z,3.20
2022-09-23T03:23:09.422Z,3.08
2022-09-23T03:25:48.625Z,3.05
2022-09-23T03:28:25.539Z,3.78
2022-09-23T03:31:01.206Z,3.22
2022-09-23T03:33:38.216Z,3.47
2022-09-23T03:36:33.012Z,3.10
2022-09-23T03:39:09.995Z,3.50
2022-09-23T03:41:51.020Z,3.53
2022-09-23T03:44:25.004Z,3.72
2022-09-23T03:47:00.817Z,3.47
2022-09-23T03:49:37.876Z,3.60
2022-09-23T03:52:11.643Z,3.88
2022-09-23T03:54:45.980Z,4.13
2022-09-23T03:57:22.199Z,4.43
2022-09-23T03:59:56.004Z,4.32
2022-09-23T04:02:30.025Z,4.40
2022-09-23T04:05:04.004Z,4.75
2022-09-23T04:10:12.193Z,4.85
2022-09-23T04:12:47.405Z,4.05
2022-09-23T04:15:22.046Z,4.75
2022-09-23T04:17:55.799Z,4.50
2022-09-23T04:20:30.409Z,4.70
2022-09-23T04:23:04.188Z,5.10
2022-09-23T04:28:12.903Z,4.45
2022-09-23T04:30:47.422Z,4.70
2022-09-23T04:33:21.200Z,5.10
2022-09-23T04:35:56.861Z,4.55
2022-09-23T04:38:30.626Z,4.82
2022-09-23T04:41:04.672Z,4.18
2022-09-23T04:46:15.203Z,3.65
2022-09-23T04:48:49.056Z,4.15
2022-09-23T04:53:57.772Z,4.65
2022-09-23T04:56:33.548Z,3.90
2022-09-23T04:59:08.938Z,4.43
2022-09-23T05:01:43.912Z,4.05
2022-09-23T05:04:17.870Z,3.85
2022-09-23T05:06:51.677Z,4.20
2022-09-23T05:11:59.116Z,3.90
2022-09-23T05:17:07.920Z,3.85
2022-09-23T05:19:42.630Z,4.60
2022-09-23T05:22:16.570Z,4.35
2022-09-23T05:27:24.032Z,3.90
2022-09-23T05:29:59.260Z,3.83
2022-09-23T05:32:33.124Z,4.72
2022-09-23T05:37:40.937Z,4.57
2022-09-23T05:42:48.762Z,3.38
2022-09-23T05:48:00.851Z,3.60
2022-09-23T05:50:34.992Z,3.92
2022-09-23T05:53:08.794Z,4.13
2022-09-23T05:55:42.584Z,4.47
2022-09-23T06:00:53.266Z,4.45
2022-09-23T06:03:27.824Z,4.22
2022-09-23T06:06:01.720Z,4.20
2022-09-23T06:11:10.113Z,3.47
2022-09-23T06:13:43.898Z,4.05
2022-09-23T06:16:19.148Z,4.78
2022-09-23T06:18:52.975Z,4.20
2022-09-23T06:24:01.130Z,3.38
2022-09-23T06:26:35.336Z,4.03
2022-09-23T06:29:12.012Z,3.85
2022-09-23T06:31:47.301Z,3.22
2022-09-23T06:34:21.540Z,3.80
2022-09-23T06:36:55.905Z,3.53
2022-09-23T06:39:30.266Z,3.42
2022-09-23T06:42:05.173Z,4.10
2022-09-23T06:44:39.889Z,3.70
2022-09-23T06:49:49.193Z,6.40
2022-09-23T06:52:23.255Z,4.68
2022-09-23T06:57:34.738Z,5.70
2022-09-23T07:00:09.982Z,5.15
2022-09-23T07:02:45.422Z,5.35
2022-09-23T07:05:19.771Z,5.03
2022-09-23T07:07:54.189Z,4.93
2022-09-23T07:10:29.286Z,5.15
2022-09-23T07:13:03.472Z,4.97
2022-09-23T07:15:37.279Z,4.90
2022-09-23T07:20:46.657Z,4.90
2022-09-23T07:23:20.818Z,5.28
2022-09-23T07:25:54.650Z,4.93
2022-09-23T07:31:08.200Z,4.78
2022-09-23T07:33:44.496Z,4.72
2022-09-23T07:36:20.444Z,4.72
2022-09-23T07:38:55.539Z,4.70
2022-09-23T07:41:29.893Z,4.57
2022-09-23T07:44:06.322Z,4.97
2022-09-23T07:46:40.371Z,4.50
2022-09-23T07:49:15.758Z,5.03
2022-09-23T07:51:49.624Z,5.95
2022-09-23T07:57:00.407Z,6.80
2022-09-23T07:59:34.755Z,6.72
2022-09-23T08:02:10.161Z,7.55
2022-09-23T08:04:46.392Z,7.38
2022-09-23T08:07:20.380Z,7.07
2022-09-23T08:09:54.141Z,6.72
2022-09-23T08:15:02.624Z,6.63
2022-09-23T08:17:36.461Z,6.65
2022-09-23T08:23:07.411Z,5.78
2022-09-23T08:25:44.096Z,6.57
2022-09-23T08:28:19.317Z,5.68
2022-09-23T08:30:53.359Z,5.93
2022-09-23T08:33:27.505Z,6.68
2022-09-23T08:36:04.049Z,6.68
2022-09-23T08:38:37.877Z,5.60
2022-09-23T08:43:55.928Z,5.70
2022-09-23T08:46:34.774Z,6.30
2022-09-23T08:49:11.550Z,6.45
2022-09-23T08:51:49.177Z,5.78
2022-09-23T08:54:23.506Z,5.32
2022-09-23T08:57:00.967Z,5.15
2022-09-23T08:59:42.848Z,5.68
2022-09-23T09:02:20.841Z,5.75
2022-09-23T09:04:58.270Z,5.65
2022-09-23T09:07:37.677Z,5.85
2022-09-23T09:10:17.293Z,5.88
2022-09-23T09:12:53.811Z,5.65
2022-09-23T09:15:28.961Z,5.47
2022-09-23T09:18:06.569Z,6.18
2022-09-23T09:20:42.335Z,6.28
2022-09-23T09:23:23.645Z,5.35
2022-09-23T09:26:00.953Z,5.75
2022-09-23T09:28:39.690Z,5.18
2022-09-23T09:31:28.654Z,5.53
2022-09-23T09:34:06.417Z,5.32
2022-09-23T09:36:45.794Z,5.70
2022-09-23T09:39:25.978Z,5.43
2022-09-23T09:42:00.573Z,4.93
2022-09-23T09:44:41.748Z,5.28
2022-09-23T09:47:28.595Z,4.90
2022-09-23T09:50:09.145Z,4.10
2022-09-23T09:52:43.302Z,5.18
2022-09-23T09:55:26.628Z,3.67
2022-09-23T09:58:05.917Z,4.20
2022-09-23T10:00:45.831Z,4.22
2022-09-23T10:03:38.309Z,3.90
2022-09-23T10:06:20.998Z,3.50
2022-09-23T10:09:22.198Z,4.45
2022-09-23T10:12:18.734Z,3.65
2022-09-23T10:14:56.736Z,3.90
2022-09-23T10:17:34.776Z,3.67
2022-09-23T10:20:11.078Z,3.63
2022-09-23T10:22:44.993Z,3.42
2022-09-23T10:25:22.206Z,3.50
2022-09-23T10:27:57.413Z,3.35
2022-09-23T10:30:31.288Z,3.63
2022-09-23T10:33:06.577Z,3.67
2022-09-23T10:35:56.787Z,3.30
2022-09-23T10:38:30.665Z,3.63
2022-09-23T10:41:23.051Z,3.83
2022-09-23T10:44:23.996Z,3.40
2022-09-23T10:47:10.410Z,3.00
2022-09-23T10:50:01.354Z,3.17
2022-09-23T10:52:56.324Z,3.40
2022-09-23T10:55:41.446Z,3.53
2022-09-23T10:58:47.872Z,3.30
2022-09-23T11:01:33.552Z,3.15
2022-09-23T11:04:21.476Z,3.65
2022-09-23T11:07:16.581Z,3.10
2022-09-23T11:10:05.052Z,3.05
2022-09-23T11:12:48.363Z,3.05
2022-09-23T11:15:33.774Z,3.00
2022-09-23T11:18:31.681Z,3.47
2022-09-23T11:21:21.677Z,2.78
2022-09-23T11:24:08.880Z,3.15
2022-09-23T11:26:53.199Z,2.80
2022-09-23T11:30:00.482Z,3.35
2022-09-23T11:32:55.732Z,2.85
2022-09-23T11:35:36.497Z,2.80
2022-09-23T11:38:13.488Z,3.15
2022-09-23T11:40:54.887Z,2.78
2022-09-23T11:43:33.646Z,3.15
2022-09-23T11:46:14.411Z,3.10
2022-09-23T11:48:53.661Z,2.90
2022-09-23T11:51:38.176Z,2.75
2022-09-23T11:54:20.585Z,2.70
2022-09-23T11:56:58.320Z,3.08
2022-09-23T11:59:41.148Z,2.85
2022-09-23T12:02:25.656Z,2.35
2022-09-23T12:05:07.571Z,2.35
2022-09-23T12:08:14.410Z,2.50
2022-09-23T12:11:07.331Z,2.55
2022-09-23T12:13:50.959Z,2.45
2022-09-23T12:16:55.783Z,2.40
2022-09-23T12:20:09.390Z,2.35
2022-09-23T12:22:57.382Z,2.67
2022-09-23T12:25:46.715Z,2.55
2022-09-23T12:28:26.320Z,2.47
2022-09-23T12:31:02.462Z,2.35
2022-09-23T12:33:38.829Z,1.98
2022-09-23T12:36:13.718Z,1.92
2022-09-23T12:38:53.584Z,2.15
2022-09-23T12:41:35.469Z,1.95
2022-09-23T12:44:27.601Z,2.33
2022-09-23T12:47:32.172Z,1.98
2022-09-23T12:50:43.096Z,1.67
2022-09-23T12:53:52.548Z,2.15
2022-09-23T12:56:31.226Z,1.90
2022-09-23T12:59:25.860Z,2.22
2022-09-23T13:02:22.558Z,2.17
2022-09-23T13:05:21.412Z,1.83
2022-09-23T13:08:01.996Z,1.90
2022-09-23T13:10:43.415Z,2.03
2022-09-23T13:13:24.445Z,2.20
2022-09-23T13:16:12.793Z,1.83
2022-09-23T13:18:54.645Z,2.25
2022-09-23T13:22:01.272Z,2.13
2022-09-23T13:24:42.192Z,2.33
2022-09-23T13:27:32.534Z,2.55
2022-09-23T13:30:23.650Z,2.20
2022-09-23T13:33:10.278Z,2.50
2022-09-23T13:35:50.824Z,2.25
2022-09-23T13:38:26.475Z,2.28
2022-09-23T13:41:03.424Z,2.50
2022-09-23T13:43:41.428Z,2.58
2022-09-23T13:46:20.484Z,2.15
2022-09-23T13:48:56.316Z,2.80
2022-09-23T13:51:34.947Z,2.75
2022-09-23T13:54:29.885Z,2.30
2022-09-23T13:57:04.345Z,2.30
2022-09-23T13:59:39.937Z,2.22
2022-09-23T14:02:17.018Z,2.60
2022-09-23T14:04:50.999Z,2.45
2022-09-23T14:07:25.439Z,3.17
2022-09-23T14:09:59.461Z,2.13
2022-09-23T14:12:33.371Z,2.53
2022-09-23T14:17:48.155Z,2.75
2022-09-23T14:20:23.576Z,2.17
2022-09-23T14:23:07.877Z,2.55
2022-09-23T14:25:44.519Z,1.98
2022-09-23T14:28:20.396Z,1.80
2022-09-23T14:30:57.782Z,2.13
2022-09-23T14:33:35.199Z,1.90
2022-09-23T14:36:32.141Z,2.40
2022-09-23T14:39:08.598Z,1.65
2022-09-23T14:41:45.082Z,1.90
2022-09-23T14:44:23.611Z,2.20
2022-09-23T14:46:59.395Z,2.55
2022-09-23T14:49:34.708Z,2.40
2022-09-23T14:52:08.570Z,2.30
2022-09-23T14:57:28.205Z,1.73
2022-09-23T15:00:09.879Z,1.88
2022-09-23T15:02:45.827Z,2.45
2022-09-23T15:05:23.350Z,1.75
2022-09-23T15:07:58.890Z,1.50
2022-09-23T15:10:35.059Z,1.85
2022-09-23T15:13:14.026Z,1.90
2022-09-23T15:15:48.188Z,2.50
2022-09-23T15:18:24.961Z,2.00
2022-09-23T15:21:04.829Z,2.25
2022-09-23T15:23:46.597Z,1.95
2022-09-23T15:26:22.570Z,1.58
2022-09-23T15:28:58.606Z,1.80
2022-09-23T15:31:33.142Z,1.73
2022-09-23T15:34:07.172Z,2.20
2022-09-23T15:36:43.937Z,2.00
2022-09-23T15:39:18.190Z,1.70
2022-09-23T15:41:52.015Z,2.15
2022-09-23T15:47:03.667Z,1.85
2022-09-23T15:49:40.296Z,2.17
2022-09-23T15:52:16.139Z,1.85
2022-09-23T15:54:50.156Z,2.53
2022-09-23T15:57:26.170Z,2.25
2022-09-23T16:00:00.123Z,2.33
2022-09-23T16:02:34.164Z,2.20
2022-09-23T16:05:12.471Z,2.42
2022-09-23T16:07:48.536Z,2.58
2022-09-23T16:10:24.160Z,2.13
2022-09-23T16:13:01.313Z,2.53
2022-09-23T16:15:35.561Z,2.30
2022-09-23T16:23:35.692Z,2.72
2022-09-23T16:26:16.656Z,2.35
2022-09-23T16:28:52.098Z,2.72
2022-09-23T16:31:29.034Z,2.85
2022-09-23T16:34:03.188Z,3.03
2022-09-23T16:36:41.321Z,2.42
2022-09-23T16:39:16.683Z,2.65
2022-09-23T16:41:50.536Z,2.70
2022-09-23T16:49:32.748Z,3.42
2022-09-23T16:52:06.725Z,3.28
2022-09-23T16:54:43.449Z,4.05
2022-09-23T16:57:17.471Z,2.92
2022-09-23T17:00:08.711Z,3.53
2022-09-23T17:02:59.869Z,2.92
2022-09-23T17:05:33.792Z,3.65
2022-09-23T17:08:07.947Z,3.58
2022-09-23T17:10:43.499Z,3.63
2022-09-23T17:13:17.580Z,11.20
2022-09-23T17:15:51.698Z,17.05
2022-09-23T17:18:25.853Z,77.78
2022-09-23T17:21:01.767Z,55.92
2022-09-23T17:23:37.211Z,95.15
2022-09-23T17:26:13.402Z,115.28
2022-09-23T17:28:47.340Z,119.25
2022-09-23T17:31:22.247Z,120.53
2022-09-23T17:33:56.385Z,118.35
2022-09-23T17:36:30.383Z,115.55
2022-09-23T17:39:05.633Z,113.70
2022-09-23T17:41:41.119Z,115.20
2022-09-23T17:44:17.742Z,104.93
2022-09-23T17:46:52.356Z,103.05
2022-09-23T17:49:26.535Z,101.22
2022-09-23T17:52:04.322Z,95.57
2022-09-23T17:54:38.439Z,89.82
2022-09-23T17:57:14.179Z,90.95
2022-09-23T17:59:50.872Z,90.72
2022-09-23T18:02:24.976Z,84.50
2022-09-23T18:04:58.988Z,79.45
2022-09-23T18:07:33.700Z,78.30
2022-09-23T18:10:09.346Z,72.15
2022-09-23T18:12:45.143Z,69.57
2022-09-23T18:15:20.271Z,70.65
2022-09-23T18:17:54.708Z,69.40
2022-09-23T18:20:28.806Z,67.22
2022-09-23T18:23:02.958Z,63.55
2022-09-23T18:25:39.864Z,63.28
2022-09-23T18:28:15.938Z,59.83
2022-09-23T18:30:55.193Z,59.45
2022-09-23T18:33:29.284Z,56.72
2022-09-23T18:36:03.715Z,56.13
2022-09-23T18:38:37.997Z,53.78
2022-09-23T18:41:12.285Z,53.95
2022-09-23T18:43:48.800Z,51.70
2022-09-23T18:46:25.262Z,53.47
2022-09-23T18:49:17.159Z,48.55
2022-09-23T18:51:54.400Z,48.47
2022-09-23T18:54:30.677Z,48.30
2022-09-23T18:57:05.783Z,47.42
2022-09-23T18:59:42.460Z,44.75
2022-09-23T19:02:17.513Z,42.47
2022-09-23T19:04:53.135Z,42.85
2022-09-23T19:07:27.707Z,42.05
2022-09-23T19:10:01.918Z,39.75
2022-09-23T19:12:36.768Z,37.45
2022-09-23T19:15:14.097Z,39.28
2022-09-23T19:17:48.167Z,38.47
2022-09-23T19:20:23.150Z,37.70
2022-09-23T19:22:58.058Z,37.97
2022-09-23T19:25:32.425Z,37.88
2022-09-23T19:28:08.608Z,37.90
2022-09-23T19:30:44.803Z,36.17
2022-09-23T19:33:18.890Z,36.45
2022-09-23T19:38:28.252Z,33.70
2022-09-23T19:41:06.355Z,34.35
2022-09-23T19:43:41.250Z,35.25
2022-09-23T19:46:17.144Z,31.70
2022-09-23T19:48:51.855Z,32.72
2022-09-23T19:51:26.582Z,32.33
2022-09-23T19:54:02.636Z,32.00
2022-09-23T19:56:37.940Z,30.55
2022-09-23T19:59:16.452Z,29.67
2022-09-23T20:01:55.421Z,31.40
2022-09-23T20:04:29.809Z,30.92
2022-09-23T20:07:05.116Z,29.50
2022-09-23T20:09:39.111Z,27.58
2022-09-23T20:12:13.082Z,27.88
2022-09-23T20:14:46.925Z,27.60
2022-09-23T20:19:55.797Z,28.27
2022-09-23T20:25:13.285Z,26.30
2022-09-23T20:27:52.320Z,27.15
2022-09-23T20:30:26.372Z,25.02
2022-09-23T20:33:01.647Z,27.70
2022-09-23T20:35:35.502Z,27.67
2022-09-23T20:38:09.409Z,25.75
2022-09-23T20:43:18.367Z,26.27
2022-09-23T20:45:53.166Z,25.23
2022-09-23T20:48:29.053Z,27.05
2022-09-23T20:51:03.332Z,27.05
2022-09-23T20:53:37.633Z,25.38
2022-09-23T20:56:11.563Z,25.27
2022-09-23T20:58:47.293Z,26.13
2022-09-23T21:01:22.059Z,26.27
2022-09-23T21:03:57.492Z,27.25
2022-09-23T21:06:31.412Z,27.10
2022-09-23T21:09:06.191Z,25.48
2022-09-23T21:11:40.058Z,24.95
2022-09-23T21:16:48.513Z,27.40
2022-09-23T21:19:24.546Z,28.38
2022-09-23T21:21:58.498Z,26.92
2022-09-23T21:27:27.241Z,26.80
2022-09-23T21:30:01.215Z,30.02
2022-09-23T21:32:35.112Z,28.02
2022-09-23T21:37:44.476Z,28.92
2022-09-23T21:40:35.746Z,26.98
2022-09-23T21:43:12.700Z,26.90
2022-09-23T21:45:47.232Z,27.60
2022-09-23T21:48:21.318Z,27.95
2022-09-23T21:53:36.596Z,27.60
2022-09-23T21:56:14.033Z,28.38
2022-09-23T21:58:52.281Z,29.45
2022-09-23T22:01:28.059Z,28.58
2022-09-23T22:04:08.623Z,28.60
2022-09-23T22:06:44.276Z,28.73
2022-09-23T22:09:20.229Z,28.80
2022-09-23T22:12:11.732Z,30.08
2022-09-23T22:14:47.407Z,29.17
2022-09-23T22:17:21.568Z,31.15
2022-09-23T22:19:55.894Z,30.08
2022-09-23T22:22:31.324Z,28.52
2022-09-23T22:25:05.794Z,31.17
2022-09-23T22:27:59.968Z,30.52
2022-09-23T22:30:47.692Z,28.80
2022-09-23T22:33:22.173Z,28.48
2022-09-23T22:36:03.006Z,28.98
2022-09-23T22:38:38.817Z,28.58
2022-09-23T22:41:15.327Z,29.33
2022-09-23T22:43:49.198Z,28.13
2022-09-23T22:48:59.356Z,28.35
2022-09-23T22:51:33.239Z,27.75
2022-09-23T22:54:09.268Z,27.15
2022-09-23T22:56:44.075Z,28.65
2022-09-23T22:59:17.969Z,27.60
2022-09-23T23:01:52.981Z,25.88
2022-09-23T23:04:28.718Z,26.38
2022-09-23T23:07:06.118Z,27.35
2022-09-23T23:09:41.662Z,25.55
2022-09-23T23:12:15.814Z,24.80
2022-09-23T23:14:50.492Z,27.13
2022-09-23T23:17:24.442Z,25.27
2022-09-23T23:19:58.653Z,25.58
2022-09-23T23:22:32.863Z,23.85
2022-09-23T23:25:09.910Z,23.38
2022-09-23T23:27:43.850Z,24.77
2022-09-23T23:30:17.837Z,24.27
2022-09-23T23:32:51.707Z,22.38
2022-09-23T23:35:25.742Z,24.30
2022-09-23T23:37:59.798Z,21.80
2022-09-23T23:40:38.529Z,22.63
2022-09-23T23:43:12.443Z,21.65
2022-09-23T23:48:20.561Z,21.60
2022-09-23T23:50:55.137Z,20.17
2022-09-23T23:53:32.337Z,20.77
2022-09-23T23:56:10.218Z,20.65
2022-09-23T23:58:44.613Z,20.05
